Time;durP1;ratioP1;P1;durP2;ratioP2;P2;SDS_P1;SDS_P2;PMS_P1;PMS_P2;Temp;Humidity;BMP_temperature;BMP_pressure;BME280_temperature;BME280_humidity;BME280_pressure;Samples;Min_cycle;Max_cycle;Signal;HPM_P1;HPM_P2
2022/01/23 00:00:51;;;;;;;;;;;;;;;;;;5040732;28;19913;-79
2022/01/23 00:03:19;;;;;;;;;;;;;;;;;;5055589;28;19913;-83
2022/01/23 00:05:48;;;;;;;;;;;;;;;;;;5045271;28;20020;-82
2022/01/23 00:08:15;;;;;;;;;;;;;;;;;;5052557;28;19917;-80
2022/01/23 00:10:40;;;;;;;;;;;;;;;;;;5052052;28;19916;-82
2022/01/23 00:13:24;;;;;;;;;;;;;;;;;;5052859;28;19917;-81
2022/01/23 00:18:35;;;;;;;;;;;;;;;;;;5054099;28;19970;-83
2022/01/23 00:21:00;;;;;;;;;;;;;;;;;;5056279;28;19916;-81
2022/01/23 00:23:34;;;;;;;;;;;;;;;;;;5056434;28;19924;-81
2022/01/23 00:31:30;;;;;;;;;;;;;;;;;;5057313;28;20353;-82
2022/01/23 00:33:56;;;;;;;;;;;;;;;;;;5057821;28;20333;-82
2022/01/23 00:36:24;;;;;;;;;;;;;;;;;;5057222;28;19917;-82
2022/01/23 00:38:50;;;;;;;;;;;;;;;;;;5057301;28;19956;-82
2022/01/23 00:41:15;;;;;;;;;;;;;;;;;;5057126;28;20297;-84
2022/01/23 00:43:42;;;;;;;;;;;;;;;;;;5057449;28;19928;-81
2022/01/23 00:51:23;;;;;;;;;;;;;;;;;;5057329;28;20543;-83
2022/01/23 00:53:49;;;;;;;;;;;;;;;;;;5056892;28;19921;-81
2022/01/23 00:56:14;;;;;;;;;;;;;;;;;;5057393;28;20318;-83
2022/01/23 00:58:39;;;;;;;;;;;;;;;;;;5056061;28;19917;-83
2022/01/23 01:01:05;;;;;;;;;;;;;;;;;;5055948;28;19944;-83
2022/01/23 01:03:30;;;;;;;;;;;;;;;;;;5056715;28;19921;-81
2022/01/23 01:06:00;;;;;;;;;;;;;;;;;;5050211;28;19917;-83
2022/01/23 01:08:25;;;;;;;;;;;;;;;;;;5045516;28;19935;-83
2022/01/23 01:11:06;;;;;;;;;;;;;;;;;;5053733;28;19924;-82
2022/01/23 01:13:53;;;;;;;;;;;;;;;;;;5055807;28;20364;-82
2022/01/23 01:16:54;;;;;;;;;;;;;;;;;;5058989;28;19999;-82
2022/01/23 01:30:26;;;;;;;;;;;;;;;;;;5036552;28;19928;-82
2022/01/23 01:33:20;;;;;;;;;;;;;;;;;;5036583;28;19913;-82
2022/01/23 01:35:58;;;;;;;;;;;;;;;;;;5056568;28;19920;-80
2022/01/23 01:38:24;;;;;;;;;;;;;;;;;;5055250;28;19916;-82
2022/01/23 01:40:51;;;;;;;;;;;;;;;;;;5054712;28;20372;-82
2022/01/23 01:43:19;;;;;;;;;;;;;;;;;;5055848;28;20289;-83
2022/01/23 01:45:44;;;;;;;;;;;;;;;;;;5055003;28;19931;-83
2022/01/23 01:48:10;;;;;;;;;;;;;;;;;;5055685;28;19917;-83
2022/01/23 01:50:35;;;;;;;;;;;;;;;;;;5055620;28;19917;-83
2022/01/23 01:53:01;;;;;;;;;;;;;;;;;;5054994;28;20008;-84
2022/01/23 01:55:30;;;;;;;;;;;;;;;;;;5046523;28;19916;-82
2022/01/23 01:58:01;;;;;;;;;;;;;;;;;;5056228;28;19951;-84
2022/01/23 02:08:41;;;;;;;;;;;;;;;;;;5050142;28;19975;-82
2022/01/23 02:11:24;;;;;;;;;;;;;;;;;;5060707;28;19963;-83
2022/01/23 02:14:27;;;;;;;;;;;;;;;;;;5061752;28;19924;-83
2022/01/23 02:17:10;;;;;;;;;;;;;;;;;;5061796;28;19994;-83
2022/01/23 02:52:39;;;;;;;;;;;;;;;;;;5058364;28;19924;-88
2022/01/23 02:55:10;;;;;;;;;;;;;;;;;;5052525;28;19925;-90
2022/01/23 03:00:13;;;;;;;;;;;;;;;;;;5055685;28;19912;-85
2022/01/23 03:02:45;;;;;;;;;;;;;;;;;;5066681;28;19944;-86
2022/01/23 03:05:24;;;;;;;;;;;;;;;;;;5053446;28;20372;-88
2022/01/23 03:10:29;;;;;;;;;;;;;;;;;;5054522;28;19967;-86
2022/01/23 03:33:45;;;;;;;;;;;;;;;;;;5054090;28;19921;-87
2022/01/23 03:36:10;;;;;;;;;;;;;;;;;;5051846;28;19935;-82
2022/01/23 03:38:36;;;;;;;;;;;;;;;;;;5053791;28;19928;-89
2022/01/23 03:41:01;;;;;;;;;;;;;;;;;;5054052;28;19917;-85
2022/01/23 03:43:30;;;;;;;;;;;;;;;;;;5054318;28;20277;-89
2022/01/23 03:50:51;;;;;;;;;;;;;;;;;;5063306;28;19925;-84
2022/01/23 03:53:17;;;;;;;;;;;;;;;;;;5053937;28;19917;-87
2022/01/23 03:55:42;;;;;;;;;;;;;;;;;;5057030;28;19950;-88
2022/01/23 03:58:08;;;;;;;;;;;;;;;;;;5040167;28;20350;-83
2022/01/23 04:00:33;;;;;;;;;;;;;;;;;;5057784;28;19916;-85
2022/01/23 04:02:58;;;;;;;;;;;;;;;;;;5057930;28;20003;-85
2022/01/23 04:05:23;;;;;;;;;;;;;;;;;;5056936;28;19927;-81
2022/01/23 04:07:49;;;;;;;;;;;;;;;;;;5056564;28;19959;-82
2022/01/23 04:10:17;;;;;;;;;;;;;;;;;;5057671;28;19996;-84
2022/01/23 04:12:56;;;;;;;;;;;;;;;;;;5056469;28;19921;-87
2022/01/23 04:21:20;;;;;;;;;;;;;;;;;;5028456;28;20011;-86
2022/01/23 04:45:38;;;;;;;;;;;;;;;;;;5057226;28;19924;-86
2022/01/23 05:04:32;;;;;;;;;;;;;;;;;;5011898;28;20458;-82
2022/01/23 05:07:03;;;;;;;;;;;;;;;;;;5043909;28;19978;-85
2022/01/23 05:09:31;;;;;;;;;;;;;;;;;;5056211;28;20326;-85
2022/01/23 05:12:01;;;;;;;;;;;;;;;;;;5059180;28;19917;-84
2022/01/23 05:14:39;;;;;;;;;;;;;;;;;;5059920;28;19927;-86
2022/01/23 05:17:05;;;;;;;;;;;;;;;;;;5057239;28;19917;-84
2022/01/23 05:19:30;;;;;;;;;;;;;;;;;;5056654;28;19928;-90
2022/01/23 05:22:15;;;;;;;;;;;;;;;;;;5056291;28;19921;-89
2022/01/23 05:24:49;;;;;;;;;;;;;;;;;;5051897;28;19927;-86
2022/01/23 05:27:14;;;;;;;;;;;;;;;;;;5068482;28;19952;-86
2022/01/23 05:29:39;;;;;;;;;;;;;;;;;;5050981;28;19951;-86
2022/01/23 05:32:10;;;;;;;;;;;;;;;;;;5071473;28;19927;-85
2022/01/23 05:34:35;;;;;;;;;;;;;;;;;;5056211;28;19917;-86
2022/01/23 05:37:00;;;;;;;;;;;;;;;;;;5056173;28;19932;-88
2022/01/23 05:39:27;;;;;;;;;;;;;;;;;;5055463;28;19948;-87
2022/01/23 05:41:58;;;;;;;;;;;;;;;;;;5054510;28;20011;-89
2022/01/23 05:44:23;;;;;;;;;;;;;;;;;;5055266;28;20046;-87
2022/01/23 05:46:49;;;;;;;;;;;;;;;;;;5054884;28;19943;-88
2022/01/23 05:49:14;;;;;;;;;;;;;;;;;;5054305;28;19978;-87
2022/01/23 05:51:39;;;;;;;;;;;;;;;;;;5054731;28;19927;-82
2022/01/23 05:54:04;;;;;;;;;;;;;;;;;;5055713;28;19999;-87
2022/01/23 05:56:30;;;;;;;;;;;;;;;;;;5051967;28;19920;-86
2022/01/23 05:58:55;;;;;;;;;;;;;;;;;;5055832;28;19932;-86
2022/01/23 06:01:23;;;;;;;;;;;;;;;;;;5036990;28;19932;-86
2022/01/23 06:03:51;;;;;;;;;;;;;;;;;;5056930;28;19916;-84
2022/01/23 06:06:16;;;;;;;;;;;;;;;;;;5064976;28;20015;-88
2022/01/23 06:08:43;;;;;;;;;;;;;;;;;;5059501;28;20349;-87
2022/01/23 06:11:13;;;;;;;;;;;;;;;;;;5053976;28;19917;-91
2022/01/23 06:13:39;;;;;;;;;;;;;;;;;;5071464;28;20011;-88
2022/01/23 06:16:04;;;;;;;;;;;;;;;;;;5055287;28;19952;-88
2022/01/23 06:18:35;;;;;;;;;;;;;;;;;;5053917;28;19917;-91
2022/01/23 06:21:00;;;;;;;;;;;;;;;;;;5054953;28;19913;-86
2022/01/23 06:23:29;;;;;;;;;;;;;;;;;;5038162;28;19974;-89
2022/01/23 06:25:54;;;;;;;;;;;;;;;;;;5041900;28;19930;-90
2022/01/23 06:28:31;;;;;;;;;;;;;;;;;;5055027;28;19925;-89
2022/01/23 06:30:56;;;;;;;;;;;;;;;;;;5055271;28;19924;-91
2022/01/23 06:33:22;;;;;;;;;;;;;;;;;;5055217;28;19917;-91
2022/01/23 06:35:47;;;;;;;;;;;;;;;;;;5055901;28;19917;-90
2022/01/23 06:38:12;;;;;;;;;;;;;;;;;;5062771;28;19921;-90
2022/01/23 06:40:37;;;;;;;;;;;;;;;;;;5063590;28;19944;-88
2022/01/23 06:43:05;;;;;;;;;;;;;;;;;;5055341;28;19920;-89
2022/01/23 06:45:30;;;;;;;;;;;;;;;;;;5055387;28;19924;-87
2022/01/23 06:47:55;;;;;;;;;;;;;;;;;;5055033;28;19917;-89
2022/01/23 06:50:20;;;;;;;;;;;;;;;;;;5070279;28;19921;-82
2022/01/23 06:52:45;;;;;;;;;;;;;;;;;;5055106;28;19924;-87
2022/01/23 06:55:11;;;;;;;;;;;;;;;;;;5053765;28;19920;-85
2022/01/23 06:57:36;;;;;;;;;;;;;;;;;;5053731;28;19921;-84
2022/01/23 07:00:02;;;;;;;;;;;;;;;;;;5054589;28;20369;-86
2022/01/23 07:02:27;;;;;;;;;;;;;;;;;;5054364;28;20297;-89
2022/01/23 07:04:56;;;;;;;;;;;;;;;;;;5053445;28;19917;-91
2022/01/23 07:07:24;;;;;;;;;;;;;;;;;;5054599;28;19921;-88
2022/01/23 07:09:49;;;;;;;;;;;;;;;;;;5050557;28;19916;-92
2022/01/23 07:12:14;;;;;;;;;;;;;;;;;;5053155;28;19927;-89
2022/01/23 07:14:42;;;;;;;;;;;;;;;;;;5046522;28;20008;-88
2022/01/23 07:17:09;;;;;;;;;;;;;;;;;;5050666;28;19999;-87
2022/01/23 07:19:34;;;;;;;;;;;;;;;;;;5053192;28;19917;-86
2022/01/23 07:21:59;;;;;;;;;;;;;;;;;;5054127;28;20416;-91
2022/01/23 07:24:27;;;;;;;;;;;;;;;;;;5053515;28;19927;-89
2022/01/23 07:26:52;;;;;;;;;;;;;;;;;;5054073;28;19924;-91
2022/01/23 07:29:18;;;;;;;;;;;;;;;;;;5053995;28;19916;-91
2022/01/23 07:31:56;;;;;;;;;;;;;;;;;;5054467;28;20035;-90
2022/01/23 07:34:21;;;;;;;;;;;;;;;;;;5044703;28;19979;-91
2022/01/23 07:36:47;;;;;;;;;;;;;;;;;;5053085;28;19931;-87
2022/01/23 07:39:12;;;;;;;;;;;;;;;;;;5052440;28;19970;-84
2022/01/23 07:41:37;;;;;;;;;;;;;;;;;;5052759;28;20286;-85
2022/01/23 07:44:02;;;;;;;;;;;;;;;;;;5054044;28;19951;-85
2022/01/23 07:46:28;;;;;;;;;;;;;;;;;;5053993;28;20010;-87
2022/01/23 07:48:53;;;;;;;;;;;;;;;;;;5054098;28;19920;-87
2022/01/23 07:51:18;;;;;;;;;;;;;;;;;;5052363;28;19928;-88
2022/01/23 07:53:45;;;;;;;;;;;;;;;;;;5053806;28;19927;-89
2022/01/23 07:56:11;;;;;;;;;;;;;;;;;;5051233;28;19964;-89
2022/01/23 07:58:36;;;;;;;;;;;;;;;;;;5043129;28;19944;-86
2022/01/23 08:01:01;;;;;;;;;;;;;;;;;;5053645;28;19917;-82
2022/01/23 08:03:26;;;;;;;;;;;;;;;;;;5053570;28;19917;-90
2022/01/23 08:05:51;;;;;;;;;;;;;;;;;;5053880;28;19927;-87
2022/01/23 08:08:17;;;;;;;;;;;;;;;;;;5053676;28;19927;-88
2022/01/23 08:10:42;;;;;;;;;;;;;;;;;;5052882;28;19917;-84
2022/01/23 08:13:07;;;;;;;;;;;;;;;;;;5069158;28;19924;-84
2022/01/23 08:15:33;;;;;;;;;;;;;;;;;;5053160;28;19920;-84
2022/01/23 08:17:59;;;;;;;;;;;;;;;;;;5040312;28;19921;-88
2022/01/23 08:20:24;;;;;;;;;;;;;;;;;;5052478;28;19920;-82
2022/01/23 08:22:49;;;;;;;;;;;;;;;;;;5052719;28;19917;-90
2022/01/23 08:25:14;;;;;;;;;;;;;;;;;;5053510;28;19921;-87
2022/01/23 08:27:42;;;;;;;;;;;;;;;;;;5053796;28;19912;-88
2022/01/23 08:30:09;;;;;;;;;;;;;;;;;;5052501;28;19917;-84
2022/01/23 08:32:34;;;;;;;;;;;;;;;;;;5049019;28;19978;-88
2022/01/23 08:34:59;;;;;;;;;;;;;;;;;;5053963;28;19956;-88
2022/01/23 08:37:24;;;;;;;;;;;;;;;;;;5053606;28;20006;-90
2022/01/23 08:39:50;;;;;;;;;;;;;;;;;;5053163;28;19917;-83
2022/01/23 08:42:16;;;;;;;;;;;;;;;;;;5056750;28;20003;-84
2022/01/23 08:44:41;;;;;;;;;;;;;;;;;;5056510;28;20331;-82
2022/01/23 08:47:09;;;;;;;;;;;;;;;;;;5055766;28;20389;-88
2022/01/23 08:49:36;;;;;;;;;;;;;;;;;;5056991;28;19924;-89
2022/01/23 08:52:02;;;;;;;;;;;;;;;;;;5057145;28;19920;-87
2022/01/23 08:54:27;;;;;;;;;;;;;;;;;;5056014;28;19927;-87
2022/01/23 08:56:53;;;;;;;;;;;;;;;;;;5058342;28;19984;-83
2022/01/23 08:59:21;;;;;;;;;;;;;;;;;;5058370;28;19916;-93
2022/01/23 09:01:46;;;;;;;;;;;;;;;;;;5068404;28;20357;-80
2022/01/23 09:04:15;;;;;;;;;;;;;;;;;;5061701;28;19995;-90
2022/01/23 09:06:41;;;;;;;;;;;;;;;;;;5056627;28;19928;-86
2022/01/23 09:09:15;;;;;;;;;;;;;;;;;;5081435;28;19921;-87
2022/01/23 09:11:52;;;;;;;;;;;;;;;;;;5056773;28;19996;-86
2022/01/23 09:14:20;;;;;;;;;;;;;;;;;;5047563;28;19917;-87
2022/01/23 09:16:45;;;;;;;;;;;;;;;;;;5056588;28;20485;-83
2022/01/23 09:19:13;;;;;;;;;;;;;;;;;;5050413;28;19917;-87
2022/01/23 09:21:40;;;;;;;;;;;;;;;;;;5056154;28;19917;-91
2022/01/23 09:24:06;;;;;;;;;;;;;;;;;;5056354;28;20333;-91
2022/01/23 09:26:33;;;;;;;;;;;;;;;;;;5055311;28;19928;-90
2022/01/23 09:29:02;;;;;;;;;;;;;;;;;;5056773;28;19995;-89
2022/01/23 09:33:53;;;;;;;;;;;;;;;;;;5056010;28;19920;-91
2022/01/23 09:36:18;;;;;;;;;;;;;;;;;;5056448;28;19960;-91
2022/01/23 09:38:48;;;;;;;;;;;;;;;;;;5056805;28;19927;-85
2022/01/23 09:41:17;;;;;;;;;;;;;;;;;;5055749;28;19917;-88
2022/01/23 09:43:42;;;;;;;;;;;;;;;;;;5055294;28;19917;-90
2022/01/23 09:46:07;;;;;;;;;;;;;;;;;;5055551;28;20237;-89
2022/01/23 09:48:36;;;;;;;;;;;;;;;;;;5056103;28;19916;-85
2022/01/23 09:51:01;;;;;;;;;;;;;;;;;;5054003;28;19921;-86
2022/01/23 09:53:26;;;;;;;;;;;;;;;;;;5054945;28;19928;-85
2022/01/23 09:55:54;;;;;;;;;;;;;;;;;;5053179;28;19921;-86
2022/01/23 09:58:20;;;;;;;;;;;;;;;;;;5046573;28;20262;-89
2022/01/23 10:00:46;;;;;;;;;;;;;;;;;;5047267;28;19917;-85
2022/01/23 10:03:11;;;;;;;;;;;;;;;;;;5046790;28;19920;-89
2022/01/23 10:05:37;;;;;;;;;;;;;;;;;;5054572;28;20361;-85
2022/01/23 10:08:02;;;;;;;;;;;;;;;;;;5053713;28;19921;-88
2022/01/23 10:10:30;;;;;;;;;;;;;;;;;;5053234;28;19975;-89
2022/01/23 10:12:56;;;;;;;;;;;;;;;;;;5060408;28;19932;-90
2022/01/23 10:15:28;;;;;;;;;;;;;;;;;;5061418;28;20452;-85
2022/01/23 10:17:53;;;;;;;;;;;;;;;;;;5058081;28;19931;-87
2022/01/23 10:20:20;;;;;;;;;;;;;;;;;;5054057;28;19917;-89
2022/01/23 10:22:49;;;;;;;;;;;;;;;;;;5049014;28;19921;-84
2022/01/23 10:25:19;;;;;;;;;;;;;;;;;;5044101;28;20313;-87
2022/01/23 10:28:00;;;;;;;;;;;;;;;;;;5049803;28;19936;-87
2022/01/23 10:30:27;;;;;;;;;;;;;;;;;;5053367;28;19917;-86
2022/01/23 10:33:18;;;;;;;;;;;;;;;;;;5054710;28;19920;-88
2022/01/23 10:36:02;;;;;;;;;;;;;;;;;;5052816;28;19946;-85
2022/01/23 10:38:29;;;;;;;;;;;;;;;;;;5054122;28;19932;-83
2022/01/23 10:41:06;;;;;;;;;;;;;;;;;;5052743;28;20334;-88
2022/01/23 10:49:00;;;;;;;;;;;;;;;;;;5054903;28;19920;-87
2022/01/23 10:51:26;;;;;;;;;;;;;;;;;;5036594;28;19916;-88
2022/01/23 10:54:02;;;;;;;;;;;;;;;;;;5052351;28;19916;-85
2022/01/23 10:56:31;;;;;;;;;;;;;;;;;;5052209;28;20362;-86
2022/01/23 10:58:59;;;;;;;;;;;;;;;;;;5050918;28;20260;-87
2022/01/23 11:01:24;;;;;;;;;;;;;;;;;;5054957;28;19917;-84
2022/01/23 11:04:06;;;;;;;;;;;;;;;;;;5054459;28;20265;-91
2022/01/23 11:06:34;;;;;;;;;;;;;;;;;;5051922;28;19931;-89
2022/01/23 11:09:10;;;;;;;;;;;;;;;;;;5054283;28;19916;-89
2022/01/23 11:11:40;;;;;;;;;;;;;;;;;;5047850;28;19990;-85
2022/01/23 11:19:43;;;;;;;;;;;;;;;;;;5053743;28;20357;-91
2022/01/23 11:22:14;;;;;;;;;;;;;;;;;;5053346;28;19931;-85
2022/01/23 11:24:42;;;;;;;;;;;;;;;;;;5053973;28;19927;-89
2022/01/23 11:27:09;;;;;;;;;;;;;;;;;;5055737;28;20361;-86
2022/01/23 11:29:35;;;;;;;;;;;;;;;;;;5054500;28;19932;-89
2022/01/23 11:32:00;;;;;;;;;;;;;;;;;;5049844;28;19912;-85
2022/01/23 11:34:27;;;;;;;;;;;;;;;;;;5067690;28;19917;-86
2022/01/23 11:36:52;;;;;;;;;;;;;;;;;;5043483;28;20393;-84
2022/01/23 11:39:36;;;;;;;;;;;;;;;;;;5053735;28;19925;-89
2022/01/23 11:56:28;;;;;;;;;;;;;;;;;;5050624;28;19927;-88
2022/01/23 11:59:09;;;;;;;;;;;;;;;;;;5050797;28;19920;-95
2022/01/23 12:02:23;;;;;;;;;;;;;;;;;;5054139;28;20416;-86
2022/01/23 12:05:07;;;;;;;;;;;;;;;;;;5005646;28;19921;-86
2022/01/23 12:07:41;;;;;;;;;;;;;;;;;;4998083;28;19976;-89
2022/01/23 12:13:56;;;;;;;;;;;;;;;;;;5007460;28;19936;-88
2022/01/23 12:18:50;;;;;;;;;;;;;;;;;;5025425;28;19926;-86
2022/01/23 12:21:30;;;;;;;;;;;;;;;;;;4999660;28;20383;-84
2022/01/23 12:23:57;;;;;;;;;;;;;;;;;;4994008;28;20517;-90
2022/01/23 12:26:24;;;;;;;;;;;;;;;;;;5005173;28;19944;-88
2022/01/23 12:28:49;;;;;;;;;;;;;;;;;;5011781;28;19995;-86
2022/01/23 12:31:15;;;;;;;;;;;;;;;;;;5013751;28;20047;-83
2022/01/23 12:33:40;;;;;;;;;;;;;;;;;;5017950;28;19925;-85
2022/01/23 12:36:05;;;;;;;;;;;;;;;;;;5051459;28;19932;-85
2022/01/23 12:38:40;;;;;;;;;;;;;;;;;;5050789;28;19969;-82
2022/01/23 12:41:13;;;;;;;;;;;;;;;;;;5053958;28;19920;-82
2022/01/23 12:43:38;;;;;;;;;;;;;;;;;;5058850;28;19982;-86
2022/01/23 12:46:05;;;;;;;;;;;;;;;;;;5052806;28;19920;-87
2022/01/23 12:48:36;;;;;;;;;;;;;;;;;;5052444;28;19913;-88
2022/01/23 12:51:03;;;;;;;;;;;;;;;;;;5048232;28;19921;-86
2022/01/23 12:53:47;;;;;;;;;;;;;;;;;;5051590;28;19916;-84
2022/01/23 12:56:22;;;;;;;;;;;;;;;;;;5057674;28;19931;-88
2022/01/23 12:58:51;;;;;;;;;;;;;;;;;;5055962;28;20003;-86
2022/01/23 13:01:21;;;;;;;;;;;;;;;;;;5056833;28;19920;-90
2022/01/23 13:04:06;;;;;;;;;;;;;;;;;;5044875;28;19964;-85
2022/01/23 13:06:37;;;;;;;;;;;;;;;;;;5057132;28;20342;-81
2022/01/23 13:09:47;;;;;;;;;;;;;;;;;;5057504;28;20000;-84
2022/01/23 13:12:25;;;;;;;;;;;;;;;;;;5063980;28;19921;-80
2022/01/23 13:34:29;;;;;;;;;;;;;;;;;;5045563;28;19939;-84
2022/01/23 13:36:58;;;;;;;;;;;;;;;;;;5054817;28;19917;-82
2022/01/23 13:39:25;;;;;;;;;;;;;;;;;;5055855;28;19936;-82
2022/01/23 13:42:04;;;;;;;;;;;;;;;;;;5045487;28;20011;-82
2022/01/23 13:51:14;;;;;;;;;;;;;;;;;;5057215;28;19928;-81
2022/01/23 13:53:26;;;;;;;;;;;;;;;;;;5060977;28;19959;-79
2022/01/23 13:58:40;;;;;;;;;;;;;;;;;;5057900;28;20384;-83
2022/01/23 14:01:52;;;;;;;;;;;;;;;;;;5056595;28;19971;-80
2022/01/23 14:03:55;;;;;;;;;;;;;;;;;;5050233;28;19916;-83
2022/01/23 14:06:20;;;;;;;;;;;;;;;;;;5059818;28;20002;-82
2022/01/23 14:08:59;;;;;;;;;;;;;;;;;;5061483;28;19917;-82
2022/01/23 14:11:40;;;;;;;;;;;;;;;;;;5062027;28;19920;-86
2022/01/23 14:14:24;;;;;;;;;;;;;;;;;;5040926;28;20394;-81
2022/01/23 14:16:50;;;;;;;;;;;;;;;;;;5064053;28;20016;-82
2022/01/23 14:19:15;;;;;;;;;;;;;;;;;;5062536;28;19925;-82
2022/01/23 14:21:47;;;;;;;;;;;;;;;;;;5051448;28;19929;-85
2022/01/23 14:24:18;;;;;;;;;;;;;;;;;;5056954;28;19921;-85
2022/01/23 14:26:54;;;;;;;;;;;;;;;;;;5055360;28;19917;-86
2022/01/23 14:29:22;;;;;;;;;;;;;;;;;;5053657;28;19925;-81
2022/01/23 14:32:02;;;;;;;;;;;;;;;;;;5053302;28;19996;-81
2022/01/23 14:34:27;;;;;;;;;;;;;;;;;;5087981;28;20421;-83
2022/01/23 14:36:56;;;;;;;;;;;;;;;;;;5060916;28;20004;-80
2022/01/23 14:39:24;;;;;;;;;;;;;;;;;;5057003;28;19920;-85
2022/01/23 14:41:52;;;;;;;;;;;;;;;;;;5054037;28;19964;-82
2022/01/23 14:44:20;;;;;;;;;;;;;;;;;;5058635;28;20007;-81
2022/01/23 14:46:46;;;;;;;;;;;;;;;;;;5061212;28;19921;-82
2022/01/23 14:49:21;;;;;;;;;;;;;;;;;;5056180;28;19921;-84
2022/01/23 14:51:46;;;;;;;;;;;;;;;;;;5053835;28;19917;-82
2022/01/23 14:54:11;;;;;;;;;;;;;;;;;;5048786;28;20330;-81
2022/01/23 14:56:39;;;;;;;;;;;;;;;;;;5035241;28;19923;-82
2022/01/23 14:59:09;;;;;;;;;;;;;;;;;;5054241;28;19978;-84
2022/01/23 15:01:35;;;;;;;;;;;;;;;;;;5057372;28;19917;-87
2022/01/23 15:04:04;;;;;;;;;;;;;;;;;;5054201;28;19936;-83
2022/01/23 15:06:44;;;;;;;;;;;;;;;;;;5034195;28;19925;-82
2022/01/23 15:09:10;;;;;;;;;;;;;;;;;;5057948;28;19967;-83
2022/01/23 15:11:38;;;;;;;;;;;;;;;;;;5049971;28;19952;-85
2022/01/23 15:14:03;;;;;;;;;;;;;;;;;;5046850;28;19920;-84
2022/01/23 15:16:28;;;;;;;;;;;;;;;;;;5040527;28;19928;-84
2022/01/23 15:18:54;;;;;;;;;;;;;;;;;;5055070;28;20313;-85
2022/01/23 15:21:21;;;;;;;;;;;;;;;;;;5058376;28;19917;-83
2022/01/23 15:26:33;;;;;;;;;;;;;;;;;;5078567;28;19931;-82
2022/01/23 15:29:02;;;;;;;;;;;;;;;;;;5051940;28;20261;-81
2022/01/23 15:31:27;;;;;;;;;;;;;;;;;;5054682;28;19916;-82
2022/01/23 15:33:54;;;;;;;;;;;;;;;;;;5057523;28;19924;-86
2022/01/23 15:36:20;;;;;;;;;;;;;;;;;;5058040;28;19916;-82
2022/01/23 15:38:46;;;;;;;;;;;;;;;;;;5055998;28;19916;-85
2022/01/23 15:41:14;;;;;;;;;;;;;;;;;;5059119;28;19920;-83
2022/01/23 15:43:39;;;;;;;;;;;;;;;;;;5041374;28;19917;-83
2022/01/23 15:46:06;;;;;;;;;;;;;;;;;;5057175;28;19916;-88
2022/01/23 15:48:34;;;;;;;;;;;;;;;;;;5058210;28;19977;-89
2022/01/23 15:51:09;;;;;;;;;;;;;;;;;;5055131;28;19916;-85
2022/01/23 15:53:41;;;;;;;;;;;;;;;;;;5057519;28;20340;-87
2022/01/23 15:56:06;;;;;;;;;;;;;;;;;;5063212;28;19916;-86
2022/01/23 15:58:33;;;;;;;;;;;;;;;;;;5052563;28;19989;-82
2022/01/23 16:01:04;;;;;;;;;;;;;;;;;;5053376;28;19921;-82
2022/01/23 16:03:41;;;;;;;;;;;;;;;;;;5053516;28;19925;-81
2022/01/23 16:06:07;;;;;;;;;;;;;;;;;;5057062;28;19917;-83
2022/01/23 16:08:32;;;;;;;;;;;;;;;;;;5059661;28;19921;-81
2022/01/23 16:11:16;;;;;;;;;;;;;;;;;;5055035;28;19923;-85
2022/01/23 16:13:41;;;;;;;;;;;;;;;;;;5055521;28;19920;-80
2022/01/23 16:16:09;;;;;;;;;;;;;;;;;;5055965;28;19927;-84
2022/01/23 16:18:34;;;;;;;;;;;;;;;;;;5060282;28;19917;-83
2022/01/23 16:21:02;;;;;;;;;;;;;;;;;;5056821;28;19978;-85
2022/01/23 16:23:27;;;;;;;;;;;;;;;;;;5058657;28;19917;-83
2022/01/23 16:26:11;;;;;;;;;;;;;;;;;;5056745;28;19928;-86
2022/01/23 16:28:44;;;;;;;;;;;;;;;;;;5050386;28;20246;-82
2022/01/23 16:31:09;;;;;;;;;;;;;;;;;;5055504;28;20257;-84
2022/01/23 16:33:38;;;;;;;;;;;;;;;;;;5055945;28;19924;-81
2022/01/23 16:36:06;;;;;;;;;;;;;;;;;;5020178;28;19933;-83
2022/01/23 16:38:34;;;;;;;;;;;;;;;;;;5019682;28;20308;-85
2022/01/23 16:41:08;;;;;;;;;;;;;;;;;;5035860;28;20416;-82
2022/01/23 16:43:33;;;;;;;;;;;;;;;;;;5035764;28;19925;-88
2022/01/23 16:45:59;;;;;;;;;;;;;;;;;;5023126;28;19928;-88
2022/01/23 16:48:27;;;;;;;;;;;;;;;;;;5017373;28;20409;-89
2022/01/23 16:50:55;;;;;;;;;;;;;;;;;;5041531;28;19920;-89
2022/01/23 16:53:26;;;;;;;;;;;;;;;;;;5038410;28;20000;-90
2022/01/23 16:55:59;;;;;;;;;;;;;;;;;;5020514;28;20002;-85
2022/01/23 16:58:25;;;;;;;;;;;;;;;;;;5039222;28;19916;-86
2022/01/23 17:00:50;;;;;;;;;;;;;;;;;;5019114;28;19936;-87
2022/01/23 17:03:15;;;;;;;;;;;;;;;;;;5014652;28;19916;-88
2022/01/23 17:05:44;;;;;;;;;;;;;;;;;;5037318;28;20008;-89
2022/01/23 17:08:41;;;;;;;;;;;;;;;;;;5041515;28;19931;-92
2022/01/23 17:11:08;;;;;;;;;;;;;;;;;;5018902;28;20350;-84
2022/01/23 17:13:36;;;;;;;;;;;;;;;;;;5034965;28;19921;-87
2022/01/23 17:16:01;;;;;;;;;;;;;;;;;;5018886;28;19999;-84
2022/01/23 17:18:26;;;;;;;;;;;;;;;;;;5033559;28;20004;-92
2022/01/23 17:20:52;;;;;;;;;;;;;;;;;;5002715;28;19987;-92
2022/01/23 17:23:19;;;;;;;;;;;;;;;;;;5022574;28;22215;-88
2022/01/23 17:25:44;;;;;;;;;;;;;;;;;;5034723;28;20363;-87
2022/01/23 17:28:10;;;;;;;;;;;;;;;;;;5034530;28;19979;-89
2022/01/23 17:30:37;;;;;;;;;;;;;;;;;;5034134;28;19935;-86
2022/01/23 17:33:06;;;;;;;;;;;;;;;;;;5037328;28;19917;-85
2022/01/23 17:35:34;;;;;;;;;;;;;;;;;;5058113;28;19979;-89
2022/01/23 17:37:59;;;;;;;;;;;;;;;;;;5060732;28;19966;-86
2022/01/23 17:40:25;;;;;;;;;;;;;;;;;;5059981;28;19924;-89
2022/01/23 17:43:15;;;;;;;;;;;;;;;;;;5058985;28;19928;-92
2022/01/23 17:45:52;;;;;;;;;;;;;;;;;;5063038;28;19936;-88
2022/01/23 17:51:18;;;;;;;;;;;;;;;;;;5057473;28;19932;-86
2022/01/23 17:53:44;;;;;;;;;;;;;;;;;;5058055;28;19927;-84
2022/01/23 17:56:12;;;;;;;;;;;;;;;;;;5056467;28;19916;-88
2022/01/23 17:58:37;;;;;;;;;;;;;;;;;;5058675;28;19974;-85
2022/01/23 18:01:03;;;;;;;;;;;;;;;;;;5056394;28;19960;-87
2022/01/23 18:03:28;;;;;;;;;;;;;;;;;;5059554;28;20039;-83
2022/01/23 18:05:59;;;;;;;;;;;;;;;;;;5057118;28;19925;-81
2022/01/23 18:08:25;;;;;;;;;;;;;;;;;;5057973;28;19962;-86
2022/01/23 18:10:50;;;;;;;;;;;;;;;;;;5057204;28;19921;-84
2022/01/23 18:13:21;;;;;;;;;;;;;;;;;;5052263;28;19917;-85
2022/01/23 18:15:47;;;;;;;;;;;;;;;;;;5050020;28;19921;-84
2022/01/23 18:18:21;;;;;;;;;;;;;;;;;;5052788;28;20273;-85
2022/01/23 18:20:49;;;;;;;;;;;;;;;;;;5049642;28;20443;-81
2022/01/23 18:23:14;;;;;;;;;;;;;;;;;;5087934;28;20349;-82
2022/01/23 18:25:46;;;;;;;;;;;;;;;;;;5049684;28;20681;-86
2022/01/23 18:28:14;;;;;;;;;;;;;;;;;;5050107;28;19917;-89
2022/01/23 18:30:40;;;;;;;;;;;;;;;;;;5059739;28;20298;-88
2022/01/23 18:33:05;;;;;;;;;;;;;;;;;;5052575;28;19920;-86
2022/01/23 18:35:33;;;;;;;;;;;;;;;;;;5054314;28;20034;-84
2022/01/23 18:37:58;;;;;;;;;;;;;;;;;;5055230;28;20269;-84
2022/01/23 18:40:27;;;;;;;;;;;;;;;;;;5051312;28;19956;-89
2022/01/23 18:42:52;;;;;;;;;;;;;;;;;;5054899;28;19921;-83
2022/01/23 18:45:17;;;;;;;;;;;;;;;;;;5055446;28;19924;-88
2022/01/23 18:47:42;;;;;;;;;;;;;;;;;;5057869;28;19917;-86
2022/01/23 18:50:09;;;;;;;;;;;;;;;;;;5051287;28;19924;-85
2022/01/23 18:52:41;;;;;;;;;;;;;;;;;;5055806;28;19956;-86
2022/01/23 18:55:10;;;;;;;;;;;;;;;;;;5052352;28;19995;-78
2022/01/23 18:57:40;;;;;;;;;;;;;;;;;;5054574;28;19917;-77
2022/01/23 19:00:09;;;;;;;;;;;;;;;;;;5048147;28;20277;-76
2022/01/23 19:03:07;;;;;;;;;;;;;;;;;;5054539;28;20308;-85
2022/01/23 19:05:32;;;;;;;;;;;;;;;;;;5051957;28;19917;-81
2022/01/23 19:08:05;;;;;;;;;;;;;;;;;;5074682;28;19920;-86
2022/01/23 19:10:39;;;;;;;;;;;;;;;;;;5052810;28;19925;-85
2022/01/23 19:13:04;;;;;;;;;;;;;;;;;;5053816;28;19916;-84
2022/01/23 19:15:30;;;;;;;;;;;;;;;;;;5053233;28;19973;-83
2022/01/23 19:17:57;;;;;;;;;;;;;;;;;;5054800;28;19917;-85
2022/01/23 19:20:23;;;;;;;;;;;;;;;;;;5052508;28;19921;-82
2022/01/23 19:22:48;;;;;;;;;;;;;;;;;;5053670;28;19946;-84
2022/01/23 19:25:18;;;;;;;;;;;;;;;;;;5052248;28;19928;-85
2022/01/23 19:27:48;;;;;;;;;;;;;;;;;;5052247;28;19916;-84
2022/01/23 19:30:18;;;;;;;;;;;;;;;;;;5054697;28;19940;-83
2022/01/23 19:32:46;;;;;;;;;;;;;;;;;;5054447;28;19921;-85
2022/01/23 19:35:11;;;;;;;;;;;;;;;;;;5050826;28;20265;-84
2022/01/23 19:37:37;;;;;;;;;;;;;;;;;;5049647;28;19925;-83
2022/01/23 19:40:03;;;;;;;;;;;;;;;;;;5051097;28;19916;-85
2022/01/23 19:43:42;;;;;;;;;;;;;;;;;;5054395;28;19943;-84
2022/01/23 19:45:27;;;;;;;;;;;;;;;;;;5029344;28;20377;-83
2022/01/23 19:48:12;;;;;;;;;;;;;;;;;;5053808;28;19917;-84
2022/01/23 19:50:38;;;;;;;;;;;;;;;;;;5054461;28;19923;-82
2022/01/23 19:53:05;;;;;;;;;;;;;;;;;;5054161;28;19917;-83
2022/01/23 19:55:33;;;;;;;;;;;;;;;;;;5052843;28;19929;-84
2022/01/23 19:58:00;;;;;;;;;;;;;;;;;;5055819;28;20353;-84
2022/01/23 20:00:27;;;;;;;;;;;;;;;;;;5054974;28;19943;-85
2022/01/23 20:02:55;;;;;;;;;;;;;;;;;;5054322;28;19921;-82
2022/01/23 20:05:20;;;;;;;;;;;;;;;;;;5056033;28;19942;-82
2022/01/23 20:07:48;;;;;;;;;;;;;;;;;;5053887;28;20011;-83
2022/01/23 20:12:57;;;;;;;;;;;;;;;;;;5055633;28;19955;-85
2022/01/23 20:15:24;;;;;;;;;;;;;;;;;;5055332;28;19960;-86
2022/01/23 20:17:50;;;;;;;;;;;;;;;;;;5055547;28;19917;-85
2022/01/23 20:20:15;;;;;;;;;;;;;;;;;;5054904;28;19917;-83
2022/01/23 20:22:41;;;;;;;;;;;;;;;;;;5051203;28;19932;-83
2022/01/23 20:25:06;;;;;;;;;;;;;;;;;;5055567;28;20298;-81
2022/01/23 20:27:33;;;;;;;;;;;;;;;;;;5042436;28;20392;-84
2022/01/23 20:29:58;;;;;;;;;;;;;;;;;;5054501;28;19925;-84